アダック島 の空港の天気 - METARとTAF

アダック空港 ( PADK / ADK ) - アメリカ アラスカ州アダック島
飛行場実況気象(Metar)
観測時間01/22 19:56 AKST (01/23 04:56 UTC)
風向・風速南南東 4m/s
視程10km以上
天気現象
全天の4割程度の雲 雲底高度 910m
全天を覆う雲 雲底高度 1070m
気温2.2℃
湿度64%
気圧1032.8hPa
METARPADK 230456Z AUTO 15008KT 10SM SCT030 OVC035 02/M04 A3050 RMK AO2 SLP328 T00221039 FZRANO
過去の天気等 Google飛行場航空写真 Wunderground天気予報

過去48時間のMETAR

飛行場予報(TAF)
データがありません